Time;durP1;ratioP1;P1;durP2;ratioP2;P2;SDS_P1;SDS_P2;PMS_P1;PMS_P2;Temp;Humidity;BMP_temperature;BMP_pressure;BME280_temperature;BME280_humidity;BME280_pressure;Samples;Min_cycle;Max_cycle;Signal;HPM_P1;HPM_P2
2023/10/30 00:01:09;;;;;;;12.13;5.88;;;;;;;9.15;100.00;97360.72;2553334;28;20065;-95
2023/10/30 00:02:27;;;;;;;10.52;5.45;;;;;;;9.12;100.00;97355.63;2564616;28;20054;-96
2023/10/30 00:03:44;;;;;;;8.50;5.32;;;;;;;9.12;100.00;97360.84;2549596;29;20507;-95
2023/10/30 00:05:00;;;;;;;11.02;5.90;;;;;;;9.05;100.00;97354.16;2548763;28;20043;-95
2023/10/30 00:06:15;;;;;;;8.20;5.50;;;;;;;8.71;100.00;97348.47;2563235;28;20043;-94
2023/10/30 00:07:31;;;;;;;13.27;5.93;;;;;;;8.78;100.00;97353.47;2569255;28;20062;-94
2023/10/30 00:08:47;;;;;;;8.90;5.90;;;;;;;8.84;100.00;97351.47;2560419;28;20126;-93
2023/10/30 00:10:03;;;;;;;11.32;5.70;;;;;;;8.67;100.00;97359.13;2565103;28;20108;-93
2023/10/30 00:11:18;;;;;;;10.23;5.95;;;;;;;8.69;100.00;97355.50;2571590;28;20505;-92
2023/10/30 00:12:34;;;;;;;9.43;5.32;;;;;;;8.69;100.00;97355.50;2567335;28;20051;-94
2023/10/30 00:13:50;;;;;;;9.85;5.55;;;;;;;8.76;100.00;97353.53;2554081;28;20073;-93
2023/10/30 00:15:06;;;;;;;9.30;5.43;;;;;;;8.87;100.00;97351.34;2545235;29;20055;-93
2023/10/30 00:16:21;;;;;;;8.13;5.43;;;;;;;8.89;100.00;97349.53;2549204;28;20043;-93
2023/10/30 00:17:38;;;;;;;9.50;5.30;;;;;;;8.87;100.00;97355.72;2563736;28;20412;-94
2023/10/30 00:18:55;;;;;;;9.02;5.43;;;;;;;8.78;100.00;97356.91;2560263;28;20051;-94
2023/10/30 00:20:10;;;;;;;8.95;5.18;;;;;;;8.73;100.00;97364.94;2560602;28;20054;-95
2023/10/30 00:21:26;;;;;;;8.60;5.28;;;;;;;8.70;100.00;97359.00;2553871;28;20046;-95
2023/10/30 00:22:44;;;;;;;11.23;5.78;;;;;;;8.60;100.00;97356.72;2553435;28;20047;-94
2023/10/30 00:24:01;;;;;;;10.55;6.15;;;;;;;8.59;100.00;97360.22;2563143;28;20518;-94
2023/10/30 00:25:16;;;;;;;11.05;5.80;;;;;;;8.59;100.00;97365.44;2567962;28;20447;-95
2023/10/30 00:26:32;;;;;;;10.52;6.15;;;;;;;8.38;100.00;97358.38;2571175;28;20073;-95
2023/10/30 00:27:51;;;;;;;11.10;6.25;;;;;;;8.59;100.00;97361.97;2569848;28;20065;-95
2023/10/30 00:29:07;;;;;;;13.35;5.97;;;;;;;8.61;100.00;97365.41;2564810;28;20054;-94
2023/10/30 00:30:23;;;;;;;10.30;5.38;;;;;;;8.66;100.00;97367.81;2569927;28;20491;-96
2023/10/30 00:31:38;;;;;;;9.30;5.13;;;;;;;8.81;100.00;97372.50;2562118;28;20480;-94
2023/10/30 00:32:54;;;;;;;9.00;5.30;;;;;;;8.85;100.00;97367.97;2557136;28;20085;-94
2023/10/30 00:34:12;;;;;;;10.52;5.15;;;;;;;8.79;100.00;97369.06;2553448;28;20051;-94
2023/10/30 00:35:27;;;;;;;7.32;5.18;;;;;;;8.78;100.00;97371.75;2558775;28;20065;-94
2023/10/30 00:36:43;;;;;;;9.07;4.68;;;;;;;8.75;100.00;97368.34;2554124;28;20054;-95
2023/10/30 00:37:58;;;;;;;8.88;4.65;;;;;;;8.47;100.00;97366.75;2553050;28;20098;-93
2023/10/30 00:39:15;;;;;;;7.55;4.53;;;;;;;8.34;100.00;97375.91;2552875;28;20086;-95
2023/10/30 00:40:30;;;;;;;7.15;4.50;;;;;;;7.94;100.00;97362.53;2542767;29;20459;-93
2023/10/30 00:41:46;;;;;;;9.95;5.18;;;;;;;8.04;100.00;97361.31;2536391;29;20087;-94
2023/10/30 00:43:02;;;;;;;8.40;5.30;;;;;;;8.26;100.00;97359.69;2558623;28;20058;-94
2023/10/30 00:44:17;;;;;;;7.88;4.85;;;;;;;8.23;100.00;97360.63;2561058;28;20053;-93
2023/10/30 00:45:33;;;;;;;8.35;5.13;;;;;;;8.42;100.00;97363.44;2555349;28;20062;-94
2023/10/30 00:46:48;;;;;;;10.63;4.93;;;;;;;8.52;100.00;97371.81;2552603;28;20052;-95
2023/10/30 00:48:04;;;;;;;11.15;4.68;;;;;;;8.53;100.00;97370.06;2558310;28;20047;-96
2023/10/30 00:49:20;;;;;;;8.27;5.30;;;;;;;8.29;100.00;97370.00;2561992;28;20095;-94
2023/10/30 00:50:36;;;;;;;9.23;4.80;;;;;;;8.04;100.00;97365.69;2570998;28;20049;-94
2023/10/30 00:51:51;;;;;;;8.00;4.55;;;;;;;8.10;100.00;97367.19;2566170;28;20054;-93
2023/10/30 00:53:07;;;;;;;10.27;4.90;;;;;;;7.95;100.00;97372.03;2551837;29;20046;-95
2023/10/30 00:54:23;;;;;;;8.43;5.05;;;;;;;8.10;100.00;97382.84;2554658;28;20051;-94
2023/10/30 00:55:40;;;;;;;8.13;4.65;;;;;;;8.01;100.00;97381.41;2559313;28;20058;-94
2023/10/30 00:56:56;;;;;;;8.23;4.55;;;;;;;7.75;100.00;97378.78;2567728;28;20043;-94
2023/10/30 00:58:11;;;;;;;11.85;5.72;;;;;;;8.04;100.00;97376.94;2576634;28;20541;-96
2023/10/30 00:59:27;;;;;;;11.15;5.68;;;;;;;8.13;100.00;97374.94;2565203;28;20591;-96
2023/10/30 01:00:42;;;;;;;10.43;5.57;;;;;;;8.14;100.00;97376.63;2550409;29;20052;-94
2023/10/30 01:01:58;;;;;;;9.98;5.82;;;;;;;8.22;100.00;97385.00;2555166;28;20827;-93
2023/10/30 01:03:15;;;;;;;11.07;5.75;;;;;;;8.32;100.00;97381.19;2560974;28;20047;-95
2023/10/30 01:04:30;;;;;;;10.18;5.88;;;;;;;8.37;100.00;97377.53;2561380;28;20043;-96
2023/10/30 01:05:46;;;;;;;11.70;5.18;;;;;;;8.31;100.00;97379.47;2560274;28;20459;-95
2023/10/30 01:07:02;;;;;;;10.70;5.80;;;;;;;8.25;100.00;97379.72;2557650;28;20043;-96
2023/10/30 01:08:18;;;;;;;9.32;5.38;;;;;;;8.15;100.00;97380.94;2560228;28;20196;-94
2023/10/30 01:09:33;;;;;;;14.70;6.30;;;;;;;8.05;100.00;97370.81;2565700;28;20626;-95
2023/10/30 01:10:49;;;;;;;9.35;5.32;;;;;;;7.95;100.00;97381.63;2557455;28;20052;-95
2023/10/30 01:12:05;;;;;;;10.63;5.63;;;;;;;7.81;100.00;97377.75;2562853;28;20043;-96
2023/10/30 01:13:21;;;;;;;8.70;4.82;;;;;;;7.77;100.00;97379.59;2578058;28;20026;-95
2023/10/30 01:14:36;;;;;;;7.95;4.75;;;;;;;7.53;100.00;97383.88;2582624;28;20050;-95
2023/10/30 01:15:55;;;;;;;12.35;5.32;;;;;;;7.60;100.00;97381.91;2584000;28;20053;-94
2023/10/30 01:17:11;;;;;;;13.02;5.38;;;;;;;7.68;100.00;97387.72;2564212;28;20044;-95
2023/10/30 01:18:27;;;;;;;7.88;5.10;;;;;;;7.77;100.00;97376.16;2562597;28;20045;-95
2023/10/30 01:19:43;;;;;;;8.63;4.55;;;;;;;7.93;100.00;97381.66;2558223;28;20032;-96
2023/10/30 01:20:58;;;;;;;12.73;5.22;;;;;;;7.99;100.00;97384.09;2561022;28;20074;-95
2023/10/30 01:22:14;;;;;;;11.10;5.10;;;;;;;8.02;100.00;97376.16;2567451;28;20090;-95
2023/10/30 01:23:30;;;;;;;10.07;4.18;;;;;;;7.98;100.00;97386.72;2567942;28;20047;-95
2023/10/30 01:24:45;;;;;;;11.48;5.05;;;;;;;7.97;100.00;97383.28;2573296;28;20035;-95
2023/10/30 01:26:01;;;;;;;8.05;4.57;;;;;;;7.92;100.00;97379.97;2567846;28;20031;-94
2023/10/30 01:27:16;;;;;;;7.85;4.60;;;;;;;7.90;100.00;97387.00;2568334;28;20050;-94
2023/10/30 01:28:32;;;;;;;11.57;4.30;;;;;;;7.89;100.00;97383.56;2568201;28;20562;-94
2023/10/30 01:29:47;;;;;;;7.07;4.57;;;;;;;7.75;100.00;97385.75;2567233;28;20023;-94
2023/10/30 01:31:04;;;;;;;7.00;4.65;;;;;;;7.84;100.00;97392.44;2575174;28;20046;-94
2023/10/30 01:32:20;;;;;;;8.35;4.43;;;;;;;7.76;100.00;97388.31;2574839;28;20066;-94
2023/10/30 01:33:36;;;;;;;7.25;4.85;;;;;;;7.71;100.00;97394.56;2568314;28;20027;-95
2023/10/30 01:34:51;;;;;;;6.80;4.63;;;;;;;7.63;100.00;97392.22;2569282;28;20039;-95
2023/10/30 01:36:07;;;;;;;6.25;4.18;;;;;;;7.74;100.00;97386.66;2568102;28;20041;-95
2023/10/30 01:37:23;;;;;;;7.95;4.88;;;;;;;7.75;100.00;97388.34;2574016;28;20051;-94
2023/10/30 01:38:39;;;;;;;10.90;4.85;;;;;;;7.68;100.00;97389.47;2577330;28;20022;-93
2023/10/30 01:39:56;;;;;;;7.10;4.68;;;;;;;7.61;100.00;97387.09;2574031;28;20070;-95
2023/10/30 01:41:11;;;;;;;7.90;4.80;;;;;;;7.70;100.00;97387.66;2573124;28;20066;-96
2023/10/30 01:42:27;;;;;;;7.65;4.30;;;;;;;7.67;100.00;97387.78;2574812;28;20395;-95
2023/10/30 01:43:42;;;;;;;8.25;5.10;;;;;;;7.60;100.00;97371.50;2568640;28;20059;-92
2023/10/30 01:44:58;;;;;;;7.85;4.60;;;;;;;7.56;100.00;97375.94;2568115;28;20027;-96
2023/10/30 01:46:14;;;;;;;7.78;4.88;;;;;;;7.13;100.00;97375.59;2578039;28;20070;-94
2023/10/30 01:47:30;;;;;;;9.38;4.90;;;;;;;6.95;100.00;97376.16;2573690;28;20102;-94
2023/10/30 01:48:46;;;;;;;9.00;5.78;;;;;;;7.03;100.00;97379.38;2575200;28;20066;-95
2023/10/30 01:50:02;;;;;;;9.65;4.97;;;;;;;7.02;100.00;97375.06;2573726;28;20035;-94
2023/10/30 01:51:20;;;;;;;8.95;5.03;;;;;;;7.12;100.00;97380.84;2575012;28;20098;-94
2023/10/30 01:52:37;;;;;;;10.20;5.72;;;;;;;7.26;100.00;97372.59;2578648;28;20364;-94
2023/10/30 01:53:53;;;;;;;11.75;5.90;;;;;;;7.18;100.00;97370.22;2583637;28;20026;-95
2023/10/30 01:55:09;;;;;;;9.60;5.53;;;;;;;7.51;100.00;97379.59;2580613;28;20042;-95
2023/10/30 01:56:25;;;;;;;9.95;5.63;;;;;;;7.12;100.00;97371.25;2569317;28;20055;-95
2023/10/30 01:57:42;;;;;;;10.20;5.15;;;;;;;7.07;100.00;97367.97;2567950;28;20019;-94
2023/10/30 01:58:58;;;;;;;13.77;6.38;;;;;;;7.41;100.00;97366.91;2574125;28;20046;-95
2023/10/30 02:00:15;;;;;;;10.07;5.72;;;;;;;7.37;100.00;97374.88;2565763;28;20067;-95
2023/10/30 02:01:31;;;;;;;11.48;6.03;;;;;;;7.44;100.00;97368.53;2560150;28;20054;-94
2023/10/30 02:02:50;;;;;;;12.38;6.53;;;;;;;7.24;100.00;97370.03;2559865;28;20051;-94
2023/10/30 02:04:06;;;;;;;14.10;6.20;;;;;;;7.51;100.00;97375.25;2560389;28;20057;-94
2023/10/30 02:05:21;;;;;;;9.43;5.63;;;;;;;7.57;100.00;97379.41;2566419;28;20075;-94
2023/10/30 02:06:37;;;;;;;8.45;5.55;;;;;;;7.73;100.00;97392.75;2565678;28;20094;-94
2023/10/30 02:07:53;;;;;;;11.73;5.82;;;;;;;7.60;100.00;97384.53;2568431;28;20123;-95
2023/10/30 02:09:08;;;;;;;9.43;5.15;;;;;;;7.42;100.00;97389.44;2564819;28;20100;-95
2023/10/30 02:10:24;;;;;;;11.80;5.78;;;;;;;7.61;100.00;97391.44;2564712;28;20079;-95
2023/10/30 02:11:39;;;;;;;13.70;7.00;;;;;;;7.78;100.00;97383.91;2558619;28;20055;-95
2023/10/30 02:12:55;;;;;;;13.40;5.50;;;;;;;7.91;100.00;97392.16;2568205;28;20066;-95
2023/10/30 02:14:11;;;;;;;11.30;5.95;;;;;;;7.83;100.00;97383.75;2563162;28;20090;-95
2023/10/30 02:15:26;;;;;;;12.73;6.88;;;;;;;7.90;100.00;97381.78;2556444;28;20050;-95
2023/10/30 02:16:42;;;;;;;11.60;6.35;;;;;;;7.94;100.00;97375.56;2563131;28;20043;-95
2023/10/30 02:17:58;;;;;;;11.13;6.25;;;;;;;7.93;100.00;97373.84;2564252;28;20058;-95
2023/10/30 02:19:21;;;;;;;12.77;6.35;;;;;;;7.85;100.00;97383.72;2564927;28;20043;-95
2023/10/30 02:20:38;;;;;;;8.77;5.65;;;;;;;7.85;100.00;97386.31;2574432;28;20427;-95
2023/10/30 02:21:55;;;;;;;10.27;5.47;;;;;;;7.85;100.00;97387.16;2561638;28;20121;-94
2023/10/30 02:23:11;;;;;;;15.90;6.05;;;;;;;7.72;100.00;97394.53;2564423;28;20038;-94
2023/10/30 02:24:27;;;;;;;15.07;5.78;;;;;;;7.70;100.00;97398.97;2562406;28;20064;-95
2023/10/30 02:25:42;;;;;;;9.75;5.45;;;;;;;7.63;100.00;97390.50;2555843;28;20051;-95
2023/10/30 02:26:58;;;;;;;14.88;6.07;;;;;;;7.58;100.00;97394.16;2555425;28;20044;-94
2023/10/30 02:28:13;;;;;;;14.35;6.30;;;;;;;7.74;100.00;97395.34;2554766;28;20050;-95
2023/10/30 02:29:29;;;;;;;18.63;6.70;;;;;;;7.26;100.00;97385.59;2555899;28;20130;-95
2023/10/30 02:30:45;;;;;;;22.95;6.05;;;;;;;7.04;100.00;97391.50;2555803;28;20074;-95
2023/10/30 02:32:00;;;;;;;17.65;6.47;;;;;;;7.09;100.00;97389.59;2554974;28;20588;-95
2023/10/30 02:33:16;;;;;;;16.05;5.88;;;;;;;6.96;100.00;97391.72;2545569;29;20083;-95
2023/10/30 02:34:32;;;;;;;23.33;7.57;;;;;;;7.22;100.00;97392.69;2549432;28;20213;-95
2023/10/30 02:35:48;;;;;;;25.27;6.78;;;;;;;7.18;100.00;97406.66;2566090;28;20053;-95
2023/10/30 02:37:03;;;;;;;31.83;7.00;;;;;;;7.25;100.00;97404.72;2561122;28;20047;-94
2023/10/30 02:38:19;;;;;;;12.60;6.57;;;;;;;7.39;100.00;97401.69;2556946;28;20106;-95
2023/10/30 02:39:35;;;;;;;46.05;9.05;;;;;;;7.57;100.00;97402.88;2556051;28;20114;-95
2023/10/30 02:40:50;;;;;;;13.45;6.30;;;;;;;7.59;100.00;97403.66;2555677;28;20053;-93
2023/10/30 02:42:08;;;;;;;13.73;6.78;;;;;;;7.59;100.00;97408.88;2555755;28;20047;-94
2023/10/30 02:43:24;;;;;;;14.77;7.18;;;;;;;7.65;100.00;97406.06;2551829;29;20066;-94
2023/10/30 02:44:40;;;;;;;47.88;6.88;;;;;;;7.67;100.00;97404.25;2556536;28;20172;-94
2023/10/30 02:45:56;;;;;;;20.90;6.43;;;;;;;7.64;100.00;97401.75;2556195;28;20072;-95
2023/10/30 02:47:11;;;;;;;28.48;8.35;;;;;;;7.70;100.00;97406.78;2556458;28;20193;-95
2023/10/30 02:48:27;;;;;;;15.82;7.00;;;;;;;7.77;100.00;97408.25;2555453;28;20039;-94
2023/10/30 02:49:43;;;;;;;12.52;6.38;;;;;;;7.82;100.00;97402.03;2564795;28;20114;-94
2023/10/30 02:50:58;;;;;;;25.25;7.07;;;;;;;7.77;100.00;97400.44;2562730;28;20047;-95
2023/10/30 02:52:14;;;;;;;26.30;6.60;;;;;;;7.60;100.00;97403.59;2555743;28;20043;-94
2023/10/30 02:53:29;;;;;;;35.15;7.70;;;;;;;7.21;100.00;97407.44;2556304;28;20035;-94
2023/10/30 02:54:45;;;;;;;17.95;6.80;;;;;;;7.25;100.00;97408.19;2561891;28;20495;-94
2023/10/30 02:56:00;;;;;;;28.42;6.82;;;;;;;7.41;100.00;97411.19;2561459;28;20042;-94
2023/10/30 02:57:16;;;;;;;32.80;7.63;;;;;;;7.56;100.00;97406.38;2556021;28;20079;-95
2023/10/30 02:58:32;;;;;;;13.18;5.43;;;;;;;7.56;100.00;97408.97;2556020;28;20059;-95
2023/10/30 02:59:48;;;;;;;19.60;6.95;;;;;;;7.24;100.00;97411.69;2555735;28;20047;-95
2023/10/30 03:01:03;;;;;;;33.15;6.63;;;;;;;7.43;100.00;97406.75;2566323;28;20782;-94
2023/10/30 03:02:19;;;;;;;35.08;7.07;;;;;;;7.49;100.00;97406.56;2561642;28;20102;-94
2023/10/30 03:03:35;;;;;;;15.60;7.13;;;;;;;7.59;100.00;97411.47;2555676;28;20110;-95
2023/10/30 03:04:50;;;;;;;29.27;7.00;;;;;;;7.64;100.00;97406.94;2555634;28;20046;-95
2023/10/30 03:06:09;;;;;;;12.27;6.47;;;;;;;7.66;100.00;97410.34;2555701;28;20105;-94
2023/10/30 03:07:24;;;;;;;23.50;7.88;;;;;;;7.15;100.00;97418.03;2556421;28;20054;-94
2023/10/30 03:08:40;;;;;;;22.65;7.07;;;;;;;7.13;100.00;97424.19;2555674;28;20059;-94
2023/10/30 03:09:57;;;;;;;18.75;7.13;;;;;;;6.97;100.00;97423.78;2545898;29;20075;-95
2023/10/30 03:11:13;;;;;;;14.63;6.00;;;;;;;6.74;100.00;97428.78;2559708;28;20057;-95
2023/10/30 03:12:29;;;;;;;16.67;6.57;;;;;;;6.81;100.00;97434.66;2561157;28;20070;-95
2023/10/30 03:13:44;;;;;;;15.95;6.88;;;;;;;6.99;100.00;97424.63;2554851;28;20058;-95
2023/10/30 03:15:00;;;;;;;9.65;6.20;;;;;;;7.18;100.00;97428.34;2566635;28;20046;-95
2023/10/30 03:16:17;;;;;;;11.55;6.40;;;;;;;7.25;100.00;97425.56;2551134;29;20535;-96
2023/10/30 03:17:33;;;;;;;12.23;6.45;;;;;;;7.03;100.00;97423.63;2549762;28;20039;-95
2023/10/30 03:18:48;;;;;;;12.27;6.25;;;;;;;7.25;100.00;97422.94;2560713;28;20039;-95
2023/10/30 03:20:07;;;;;;;12.25;6.43;;;;;;;7.41;100.00;97425.94;2555336;28;20039;-95
2023/10/30 03:21:24;;;;;;;11.23;6.40;;;;;;;7.40;100.00;97437.25;2561516;28;20047;-94
2023/10/30 03:22:40;;;;;;;15.75;6.45;;;;;;;7.41;100.00;97434.63;2565074;28;20054;-96
2023/10/30 03:23:56;;;;;;;18.90;6.18;;;;;;;7.38;100.00;97432.06;2561288;28;20055;-96
2023/10/30 03:25:11;;;;;;;28.08;6.32;;;;;;;7.37;100.00;97427.78;2560967;28;20047;-95
2023/10/30 03:26:29;;;;;;;9.10;5.90;;;;;;;7.57;100.00;97436.72;2550914;29;20054;-94
2023/10/30 03:27:44;;;;;;;19.02;5.45;;;;;;;7.66;100.00;97432.97;2548827;28;20043;-94
2023/10/30 03:29:00;;;;;;;19.38;6.10;;;;;;;7.77;100.00;97433.47;2560901;28;20100;-96
2023/10/30 03:30:16;;;;;;;10.50;5.72;;;;;;;7.83;100.00;97427.22;2560256;28;20051;-95
2023/10/30 03:31:33;;;;;;;9.52;5.25;;;;;;;7.90;100.00;97429.56;2560050;28;20050;-95
2023/10/30 03:32:48;;;;;;;15.88;5.60;;;;;;;7.88;100.00;97423.53;2560778;28;20840;-95
2023/10/30 03:34:04;;;;;;;13.13;5.45;;;;;;;7.86;100.00;97427.09;2554491;28;20074;-96
2023/10/30 03:35:19;;;;;;;11.88;6.05;;;;;;;7.89;100.00;97417.44;2553421;28;20050;-95
2023/10/30 03:36:36;;;;;;;10.55;5.75;;;;;;;7.85;100.00;97428.00;2564291;28;20081;-95
2023/10/30 03:37:51;;;;;;;11.07;5.90;;;;;;;7.82;100.00;97430.69;2560616;28;20042;-95
2023/10/30 03:39:07;;;;;;;10.70;5.90;;;;;;;7.85;100.00;97433.22;2544591;29;20126;-95
2023/10/30 03:40:23;;;;;;;10.35;5.15;;;;;;;7.55;100.00;97430.72;2548873;28;20102;-96
2023/10/30 03:41:38;;;;;;;7.82;5.13;;;;;;;7.25;100.00;97430.75;2554016;28;20496;-96
2023/10/30 03:42:54;;;;;;;10.65;6.20;;;;;;;7.38;100.00;97436.44;2553223;28;20043;-94
2023/10/30 03:44:11;;;;;;;9.00;5.53;;;;;;;7.21;100.00;97449.09;2554370;28;20047;-96
2023/10/30 03:45:27;;;;;;;12.07;5.75;;;;;;;7.21;100.00;97443.88;2564383;28;20050;-95
2023/10/30 03:46:43;;;;;;;8.60;5.93;;;;;;;7.52;100.00;97444.69;2559348;28;20050;-96
2023/10/30 03:47:58;;;;;;;11.98;5.72;;;;;;;7.65;100.00;97441.69;2560690;28;20150;-96
2023/10/30 03:49:14;;;;;;;9.80;5.15;;;;;;;7.74;100.00;97436.16;2559678;28;20058;-94
2023/10/30 03:50:30;;;;;;;9.95;5.28;;;;;;;7.76;100.00;97436.97;2545138;29;20129;-95
2023/10/30 03:51:46;;;;;;;8.15;5.50;;;;;;;7.61;100.00;97451.34;2553920;28;20097;-94
2023/10/30 03:53:02;;;;;;;14.52;5.63;;;;;;;7.67;100.00;97440.72;2564351;28;20043;-93
2023/10/30 03:54:18;;;;;;;22.10;5.85;;;;;;;7.60;100.00;97439.22;2568693;28;20057;-94
2023/10/30 03:55:34;;;;;;;10.35;5.45;;;;;;;7.67;100.00;97439.88;2558884;28;20102;-94
2023/10/30 03:56:49;;;;;;;18.85;5.63;;;;;;;7.78;100.00;97441.22;2563721;28;20450;-94
2023/10/30 03:58:05;;;;;;;14.23;5.63;;;;;;;7.82;100.00;97444.59;2566288;28;20475;-95
2023/10/30 03:59:21;;;;;;;19.67;5.75;;;;;;;7.89;100.00;97435.69;2561202;28;20050;-95
2023/10/30 04:00:36;;;;;;;14.35;5.25;;;;;;;7.94;100.00;97430.28;2560293;28;20074;-95
2023/10/30 04:01:52;;;;;;;11.68;5.38;;;;;;;7.85;100.00;97434.06;2550579;29;20051;-94
2023/10/30 04:03:08;;;;;;;19.27;5.97;;;;;;;7.90;100.00;97436.50;2554599;28;20043;-94
2023/10/30 04:04:23;;;;;;;15.32;5.75;;;;;;;7.93;100.00;97432.97;2569855;28;20058;-94
2023/10/30 04:05:42;;;;;;;12.85;5.55;;;;;;;7.77;100.00;97433.47;2569768;28;20046;-94
2023/10/30 04:06:58;;;;;;;9.43;5.25;;;;;;;7.84;100.00;97431.53;2560090;28;20538;-94
2023/10/30 04:08:13;;;;;;;11.23;5.63;;;;;;;7.76;100.00;97427.41;2551282;29;20063;-95
2023/10/30 04:09:30;;;;;;;16.15;5.22;;;;;;;7.74;100.00;97431.81;2554759;28;20043;-95
2023/10/30 04:10:46;;;;;;;12.25;5.13;;;;;;;7.68;100.00;97437.19;2554530;28;20047;-94
2023/10/30 04:12:02;;;;;;;11.77;4.70;;;;;;;7.67;100.00;97432.91;2554950;28;20534;-94
2023/10/30 04:13:17;;;;;;;10.82;5.43;;;;;;;7.76;100.00;97419.59;2554463;28;20050;-94
2023/10/30 04:14:33;;;;;;;13.02;5.20;;;;;;;7.78;100.00;97432.56;2554347;28;20687;-95
2023/10/30 04:15:49;;;;;;;7.65;5.03;;;;;;;7.72;100.00;97427.53;2560612;28;20055;-94
2023/10/30 04:17:04;;;;;;;11.90;5.22;;;;;;;7.83;100.00;97430.66;2560606;28;20086;-94
2023/10/30 04:18:20;;;;;;;15.13;5.38;;;;;;;7.54;100.00;97434.19;2554435;28;20075;-94
2023/10/30 04:19:36;;;;;;;11.63;4.53;;;;;;;7.63;100.00;97429.56;2555536;28;20655;-94
2023/10/30 04:20:51;;;;;;;10.88;5.03;;;;;;;7.83;100.00;97438.47;2560385;28;20126;-94
2023/10/30 04:22:07;;;;;;;11.05;4.75;;;;;;;7.70;100.00;97440.63;2554812;28;20430;-95
2023/10/30 04:23:22;;;;;;;14.57;5.43;;;;;;;7.64;100.00;97451.25;2553825;28;20054;-95
2023/10/30 04:24:38;;;;;;;8.73;4.63;;;;;;;7.69;100.00;97453.69;2554418;28;20142;-94
2023/10/30 04:25:55;;;;;;;10.02;4.90;;;;;;;7.61;100.00;97448.75;2564632;28;20054;-95
2023/10/30 04:27:11;;;;;;;23.35;5.60;;;;;;;7.48;100.00;97451.72;2566477;28;20114;-94
2023/10/30 04:28:27;;;;;;;9.77;5.13;;;;;;;7.44;100.00;97444.94;2559980;28;20654;-94
2023/10/30 04:29:43;;;;;;;13.15;5.25;;;;;;;7.26;100.00;97463.69;2555069;28;20125;-95
2023/10/30 04:30:58;;;;;;;7.40;4.75;;;;;;;7.34;100.00;97454.78;2553926;28;20536;-94
2023/10/30 04:32:16;;;;;;;14.80;5.60;;;;;;;6.99;100.00;97463.66;2552980;28;20051;-95
2023/10/30 04:33:32;;;;;;;16.80;5.93;;;;;;;7.15;100.00;97474.44;2554361;28;20088;-95
2023/10/30 04:34:50;;;;;;;9.85;4.88;;;;;;;7.20;100.00;97463.00;2552972;28;20556;-95
2023/10/30 04:36:06;;;;;;;11.48;5.50;;;;;;;6.83;100.00;97458.88;2553324;28;20067;-95
2023/10/30 04:37:23;;;;;;;9.23;5.55;;;;;;;6.97;100.00;97461.09;2543083;29;20506;-96
2023/10/30 04:38:39;;;;;;;8.13;4.88;;;;;;;6.76;100.00;97455.59;2547280;28;20082;-95
2023/10/30 04:39:56;;;;;;;9.05;5.35;;;;;;;7.09;100.00;97469.44;2551309;28;20051;-95
2023/10/30 04:41:13;;;;;;;8.95;5.20;;;;;;;6.88;100.00;97446.59;2559993;28;20469;-96
2023/10/30 04:42:32;;;;;;;8.57;5.10;;;;;;;7.01;100.00;97464.47;2559384;28;20054;-95
2023/10/30 04:43:52;;;;;;;9.38;5.15;;;;;;;7.13;100.00;97471.03;2559295;28;20543;-95
2023/10/30 04:45:10;;;;;;;8.93;5.22;;;;;;;7.14;100.00;97467.53;2559050;28;20507;-93
2023/10/30 04:46:26;;;;;;;8.77;5.03;;;;;;;6.97;100.00;97455.00;2544447;29;20056;-95
2023/10/30 04:47:43;;;;;;;10.07;5.05;;;;;;;6.75;100.00;97463.47;2552631;28;20105;-94
2023/10/30 04:48:58;;;;;;;7.60;4.60;;;;;;;6.77;100.00;97465.13;2562843;28;20038;-95
2023/10/30 04:50:14;;;;;;;8.95;4.47;;;;;;;6.40;100.00;97449.66;2559613;28;20496;-96
2023/10/30 04:51:46;;;;;;;9.00;5.30;;;;;;;6.75;100.00;97466.91;2553083;28;20039;-94
2023/10/30 04:53:08;;;;;;;7.25;4.63;;;;;;;7.00;100.00;97460.16;2555129;28;20154;-96
2023/10/30 04:54:34;;;;;;;7.45;4.97;;;;;;;6.96;100.00;97461.13;2542691;29;20174;-94
2023/10/30 04:55:51;;;;;;;7.47;4.53;;;;;;;7.13;100.00;97458.03;2547374;28;20527;-96
2023/10/30 04:57:08;;;;;;;9.45;5.22;;;;;;;7.19;100.00;97463.91;2551402;28;20070;-96
2023/10/30 04:58:24;;;;;;;9.80;4.88;;;;;;;7.18;100.00;97463.94;2553918;28;20074;-96
2023/10/30 04:59:42;;;;;;;8.63;4.57;;;;;;;7.17;100.00;97460.50;2554050;28;20035;-96
2023/10/30 05:00:58;;;;;;;7.95;5.00;;;;;;;7.06;100.00;97468.63;2553427;28;20146;-96
2023/10/30 05:02:14;;;;;;;9.45;5.97;;;;;;;7.12;100.00;97472.78;2559434;28;20054;-96
2023/10/30 05:03:33;;;;;;;7.40;4.72;;;;;;;7.09;100.00;97467.66;2548986;29;20138;-96
2023/10/30 05:04:49;;;;;;;8.90;5.30;;;;;;;7.08;100.00;97465.97;2553137;28;20167;-94
2023/10/30 05:06:05;;;;;;;8.30;5.43;;;;;;;6.97;100.00;97455.88;2558710;28;20055;-94
2023/10/30 05:07:21;;;;;;;8.63;5.57;;;;;;;7.02;100.00;97463.56;2562979;28;20081;-95
2023/10/30 05:08:36;;;;;;;7.47;5.10;;;;;;;7.05;100.00;97466.06;2559431;28;20047;-95
2023/10/30 05:09:52;;;;;;;8.95;5.28;;;;;;;7.03;100.00;97460.88;2552642;28;20527;-96
2023/10/30 05:11:08;;;;;;;8.38;5.20;;;;;;;6.82;100.00;97459.78;2554314;28;20614;-95
2023/10/30 05:12:23;;;;;;;7.35;4.50;;;;;;;6.87;100.00;97464.84;2560189;28;20050;-94
2023/10/30 05:13:39;;;;;;;8.35;4.60;;;;;;;6.77;100.00;97466.88;2553442;28;20071;-96
2023/10/30 05:14:55;;;;;;;8.48;5.00;;;;;;;6.85;100.00;97466.66;2558903;28;20055;-95
2023/10/30 05:16:10;;;;;;;7.60;4.53;;;;;;;6.85;100.00;97467.50;2558850;28;20526;-95
2023/10/30 05:17:27;;;;;;;7.55;4.38;;;;;;;6.75;100.00;97469.50;2552232;28;20047;-95
2023/10/30 05:18:42;;;;;;;6.70;4.57;;;;;;;6.85;100.00;97466.66;2551996;28;20059;-95
2023/10/30 05:19:58;;;;;;;7.90;4.68;;;;;;;6.94;100.00;97461.19;2553479;28;20046;-94
2023/10/30 05:21:14;;;;;;;6.32;4.13;;;;;;;7.00;100.00;97460.16;2562765;28;20054;-96
2023/10/30 05:22:29;;;;;;;8.35;4.60;;;;;;;7.02;100.00;97464.41;2558615;28;20079;-95
2023/10/30 05:23:45;;;;;;;8.55;4.60;;;;;;;6.95;100.00;97455.09;2553227;28;20098;-95
2023/10/30 05:25:05;;;;;;;7.35;4.38;;;;;;;6.30;100.00;97443.88;2563108;28;20051;-94
2023/10/30 05:26:20;;;;;;;8.30;4.20;;;;;;;6.32;100.00;97462.88;2569860;28;21112;-94
2023/10/30 05:27:36;;;;;;;9.27;4.60;;;;;;;6.37;100.00;97450.63;2566055;28;20499;-96
2023/10/30 05:28:52;;;;;;;9.45;4.93;;;;;;;6.27;100.00;97437.00;2549911;29;20107;-94
2023/10/30 05:30:08;;;;;;;8.55;5.35;;;;;;;6.26;100.00;97434.47;2549061;28;20047;-96
2023/10/30 05:31:24;;;;;;;7.00;4.03;;;;;;;6.10;100.00;97441.81;2563220;28;20038;-94
2023/10/30 05:32:40;;;;;;;8.55;4.78;;;;;;;6.44;100.00;97430.50;2559431;28;20058;-94
2023/10/30 05:33:55;;;;;;;6.90;4.43;;;;;;;6.32;100.00;97431.69;2551861;28;20040;-94
2023/10/30 05:35:11;;;;;;;7.63;4.63;;;;;;;6.21;100.00;97437.19;2550105;28;20491;-96
2023/10/30 05:36:27;;;;;;;7.80;4.57;;;;;;;6.28;100.00;97432.66;2552824;28;21039;-95
2023/10/30 05:37:42;;;;;;;8.90;5.28;;;;;;;6.48;100.00;97429.53;2553468;28;20751;-95
2023/10/30 05:38:58;;;;;;;6.72;4.40;;;;;;;6.57;100.00;97437.06;2551118;28;20047;-95
2023/10/30 05:40:14;;;;;;;8.75;5.15;;;;;;;6.54;100.00;97425.91;2553283;28;20058;-95
2023/10/30 05:41:29;;;;;;;7.63;4.95;;;;;;;6.80;100.00;97432.94;2553215;28;20499;-95
2023/10/30 05:42:45;;;;;;;8.68;4.90;;;;;;;6.79;100.00;97431.25;2552466;28;20051;-95
2023/10/30 05:44:00;;;;;;;11.48;5.45;;;;;;;6.90;100.00;97439.59;2554183;28;20046;-95
2023/10/30 05:45:16;;;;;;;8.82;4.95;;;;;;;6.82;100.00;97433.75;2554696;28;20053;-94
2023/10/30 05:46:32;;;;;;;7.93;4.78;;;;;;;6.68;100.00;97443.69;2559552;28;20102;-94
2023/10/30 05:47:48;;;;;;;8.30;5.00;;;;;;;6.73;100.00;97450.47;2559631;28;20450;-94
2023/10/30 05:49:03;;;;;;;7.55;4.25;;;;;;;6.83;100.00;97451.06;2559936;28;20127;-94
2023/10/30 05:50:20;;;;;;;9.23;4.45;;;;;;;6.90;100.00;97450.00;2556823;28;20053;-94
2023/10/30 05:51:35;;;;;;;9.00;4.80;;;;;;;6.88;100.00;97454.41;2554854;28;20450;-93
2023/10/30 05:52:51;;;;;;;6.95;4.32;;;;;;;6.93;100.00;97454.28;2556870;28;20043;-94
2023/10/30 05:54:08;;;;;;;7.38;4.70;;;;;;;6.98;100.00;97451.50;2559053;28;20505;-94
2023/10/30 05:55:23;;;;;;;6.55;4.70;;;;;;;6.68;100.00;97448.91;2569797;28;20046;-94
2023/10/30 05:56:39;;;;;;;6.82;4.47;;;;;;;6.74;100.00;97443.53;2565109;28;20280;-93